createdAt,value
2023-05-09T00:01:33.107Z,4.13
2023-05-09T00:04:35.348Z,2.53
2023-05-09T00:07:37.129Z,3.00
2023-05-09T00:10:38.580Z,3.00
2023-05-09T00:13:41.771Z,3.15
2023-05-09T00:19:45.803Z,3.50
2023-05-09T00:22:47.305Z,3.90
2023-05-09T00:25:48.790Z,3.97
2023-05-09T00:28:50.266Z,3.50
2023-05-09T00:31:51.766Z,3.08
2023-05-09T00:34:53.624Z,2.65
2023-05-09T00:37:55.216Z,3.75
2023-05-09T00:40:56.714Z,3.17
2023-05-09T00:43:58.162Z,4.68
2023-05-09T00:46:59.896Z,4.60
2023-05-09T00:50:02.286Z,6.03
2023-05-09T00:53:05.018Z,5.30
2023-05-09T00:56:07.211Z,3.90
2023-05-09T00:59:08.978Z,4.35
2023-05-09T01:02:11.056Z,4.50
2023-05-09T01:05:13.135Z,4.60
2023-05-09T01:08:51.489Z,4.15
2023-05-09T01:12:06.764Z,4.22
2023-05-09T01:15:39.380Z,4.05
2023-05-09T01:18:50.718Z,3.55
2023-05-09T01:21:54.491Z,4.45
2023-05-09T01:25:07.289Z,4.28
2023-05-09T01:28:14.956Z,4.47
2023-05-09T01:31:17.174Z,4.78
2023-05-09T01:34:20.655Z,4.50
2023-05-09T01:37:43.362Z,3.72
2023-05-09T01:40:47.466Z,4.72
2023-05-09T01:43:51.019Z,3.78
2023-05-09T01:46:56.219Z,4.18
2023-05-09T01:49:58.259Z,3.20
2023-05-09T01:53:01.803Z,3.35
2023-05-09T01:56:05.317Z,4.80
2023-05-09T01:59:08.091Z,3.97
2023-05-09T02:02:10.574Z,4.03
2023-05-09T02:05:14.384Z,3.60
2023-05-09T02:08:21.043Z,3.92
2023-05-09T02:11:22.635Z,3.08
2023-05-09T02:14:24.862Z,5.40
2023-05-09T02:17:26.350Z,3.63
2023-05-09T02:20:27.774Z,3.08
2023-05-09T02:23:31.336Z,3.55
2023-05-09T02:26:34.227Z,4.43
2023-05-09T02:29:40.538Z,4.68
2023-05-09T02:32:45.615Z,4.72
2023-05-09T02:35:48.067Z,4.32
2023-05-09T02:38:50.078Z,4.78
2023-05-09T02:41:51.546Z,4.05
2023-05-09T02:44:53.939Z,3.17
2023-05-09T02:47:55.669Z,4.35
2023-05-09T02:50:58.337Z,4.10
2023-05-09T02:53:59.927Z,4.55
2023-05-09T02:57:01.835Z,4.15
2023-05-09T03:00:09.311Z,3.50
2023-05-09T03:03:11.244Z,2.90
2023-05-09T03:06:14.193Z,4.20
2023-05-09T03:09:15.794Z,3.97
2023-05-09T03:12:17.291Z,2.75
2023-05-09T03:15:18.946Z,3.50
2023-05-09T03:18:21.819Z,5.38
2023-05-09T03:21:23.364Z,3.42
2023-05-09T03:24:28.156Z,3.97
2023-05-09T03:27:29.737Z,3.55
2023-05-09T03:30:31.404Z,4.22
2023-05-09T03:33:33.330Z,4.40
2023-05-09T03:36:36.414Z,3.35
2023-05-09T03:39:38.408Z,3.90
2023-05-09T03:42:40.010Z,4.65
2023-05-09T03:45:42.044Z,5.05
2023-05-09T03:48:45.216Z,4.45
2023-05-09T03:51:46.872Z,4.38
2023-05-09T03:54:50.781Z,3.88
2023-05-09T03:57:53.140Z,4.05
2023-05-09T04:00:54.877Z,4.63
2023-05-09T04:03:58.909Z,3.65
2023-05-09T04:07:01.952Z,3.10
2023-05-09T04:10:03.577Z,3.90
2023-05-09T04:13:05.269Z,4.10
2023-05-09T04:16:07.139Z,4.05
2023-05-09T04:19:09.309Z,4.93
2023-05-09T04:22:10.849Z,4.20
2023-05-09T04:25:14.224Z,3.80
2023-05-09T04:28:16.376Z,4.20
2023-05-09T04:31:19.560Z,3.40
2023-05-09T04:34:26.259Z,4.03
2023-05-09T04:37:28.667Z,3.03
2023-05-09T04:40:30.800Z,4.38
2023-05-09T04:43:35.053Z,4.03
2023-05-09T04:46:37.092Z,3.58
2023-05-09T04:49:38.573Z,2.78
2023-05-09T04:52:39.996Z,3.72
2023-05-09T04:55:41.560Z,3.70
2023-05-09T04:58:43.490Z,3.13
2023-05-09T05:01:46.248Z,4.15
2023-05-09T05:04:48.140Z,5.35
2023-05-09T05:07:50.373Z,4.47
2023-05-09T05:10:55.964Z,3.85
2023-05-09T05:13:57.624Z,3.72
2023-05-09T05:16:59.086Z,3.90
2023-05-09T05:20:00.684Z,3.42
2023-05-09T05:23:05.141Z,3.10
2023-05-09T05:26:07.032Z,3.70
2023-05-09T05:29:10.220Z,3.83
2023-05-09T05:32:11.655Z,3.50
2023-05-09T05:35:13.412Z,2.90
2023-05-09T05:38:15.653Z,3.40
2023-05-09T05:41:20.797Z,2.80
2023-05-09T05:44:23.677Z,2.78
2023-05-09T05:47:25.264Z,2.60
2023-05-09T05:50:27.229Z,3.80
2023-05-09T05:53:30.367Z,4.40
2023-05-09T05:56:32.994Z,2.80
2023-05-09T05:59:34.456Z,4.03
2023-05-09T06:02:35.969Z,4.53
2023-05-09T06:05:37.811Z,4.38
2023-05-09T06:08:40.461Z,4.30
2023-05-09T06:11:41.900Z,4.45
2023-05-09T06:14:43.767Z,3.38
2023-05-09T06:17:45.360Z,4.07
2023-05-09T06:20:47.127Z,4.22
2023-05-09T06:24:04.980Z,4.25
2023-05-09T06:27:10.976Z,4.75
2023-05-09T06:30:24.839Z,4.88
2023-05-09T06:33:28.040Z,5.38
2023-05-09T06:36:29.530Z,6.30
2023-05-09T06:39:30.996Z,5.35
2023-05-09T06:42:33.687Z,6.60
2023-05-09T06:45:35.262Z,7.85
2023-05-09T06:48:36.754Z,9.50
2023-05-09T06:51:38.207Z,9.02
2023-05-09T06:54:39.694Z,10.45
2023-05-09T06:57:41.321Z,8.90
2023-05-09T07:00:42.849Z,8.27
2023-05-09T07:03:44.521Z,9.48
2023-05-09T07:06:46.104Z,8.75
2023-05-09T07:09:50.721Z,7.90
2023-05-09T07:12:54.314Z,8.77
2023-05-09T07:15:56.021Z,7.47
2023-05-09T07:18:57.474Z,9.15
2023-05-09T07:21:58.856Z,8.38
2023-05-09T07:25:00.293Z,9.43
2023-05-09T07:28:01.771Z,7.30
2023-05-09T07:31:03.447Z,9.30
2023-05-09T07:34:04.910Z,11.15
2023-05-09T07:37:06.366Z,9.48
2023-05-09T07:40:08.467Z,9.93
2023-05-09T07:43:09.941Z,8.95
2023-05-09T07:46:11.461Z,10.30
2023-05-09T07:49:12.885Z,10.02
2023-05-09T07:52:14.402Z,8.85
2023-05-09T07:55:16.152Z,7.60
2023-05-09T07:58:17.898Z,8.70
2023-05-09T08:01:19.379Z,8.65
2023-05-09T08:04:20.856Z,7.80
2023-05-09T08:07:22.341Z,6.93
2023-05-09T08:10:24.044Z,8.38
2023-05-09T08:13:25.805Z,8.05
2023-05-09T08:16:27.656Z,7.85
2023-05-09T08:19:29.178Z,7.22
2023-05-09T08:22:30.606Z,7.13
2023-05-09T08:25:32.058Z,7.45
2023-05-09T08:28:33.695Z,7.82
2023-05-09T08:31:35.242Z,8.48
2023-05-09T08:34:36.869Z,6.30
2023-05-09T08:37:38.489Z,6.05
2023-05-09T08:40:40.924Z,6.05
2023-05-09T08:43:43.119Z,5.80
2023-05-09T08:46:47.069Z,6.55
2023-05-09T08:49:49.969Z,6.85
2023-05-09T08:52:52.045Z,7.28
2023-05-09T08:55:53.592Z,7.22
2023-05-09T08:58:55.611Z,7.30
2023-05-09T09:01:57.241Z,5.80
2023-05-09T09:04:58.775Z,6.63
2023-05-09T09:08:00.641Z,6.03
2023-05-09T09:11:02.690Z,6.05
2023-05-09T09:14:13.677Z,6.90
2023-05-09T09:17:18.194Z,8.77
2023-05-09T09:20:22.729Z,8.57
2023-05-09T09:23:25.883Z,7.60
2023-05-09T09:26:29.269Z,7.85
2023-05-09T09:29:31.259Z,8.10
2023-05-09T09:32:34.059Z,8.40
2023-05-09T09:35:39.897Z,7.50
2023-05-09T09:38:45.242Z,7.70
2023-05-09T09:41:46.707Z,7.10
2023-05-09T09:44:57.700Z,7.05
2023-05-09T09:47:59.209Z,7.13
2023-05-09T09:51:11.185Z,5.82
2023-05-09T09:54:13.156Z,5.30
2023-05-09T09:57:33.991Z,5.75
2023-05-09T10:00:35.487Z,6.55
2023-05-09T10:03:42.329Z,5.53
2023-05-09T10:06:53.077Z,5.28
2023-05-09T10:09:54.518Z,5.90
2023-05-09T10:13:07.583Z,5.38
2023-05-09T10:16:10.200Z,4.57
2023-05-09T10:19:13.493Z,5.68
2023-05-09T10:22:18.133Z,4.60
2023-05-09T10:25:21.632Z,5.05
2023-05-09T10:28:27.660Z,3.95
2023-05-09T10:31:32.506Z,4.95
2023-05-09T10:34:35.618Z,3.75
2023-05-09T10:37:37.334Z,3.78
2023-05-09T10:40:40.680Z,3.50
2023-05-09T10:43:43.001Z,4.07
2023-05-09T10:46:45.912Z,3.73
2023-05-09T10:49:49.224Z,3.45
2023-05-09T10:53:08.394Z,4.22
2023-05-09T10:56:22.018Z,3.55
2023-05-09T10:59:37.728Z,3.28
2023-05-09T11:02:39.265Z,3.17
2023-05-09T11:05:41.499Z,3.78
2023-05-09T11:08:43.082Z,3.00
2023-05-09T11:12:14.406Z,3.10
2023-05-09T11:15:18.532Z,2.40
2023-05-09T11:18:19.986Z,3.35
2023-05-09T11:21:21.686Z,2.70
2023-05-09T11:24:23.113Z,2.80
2023-05-09T11:27:26.495Z,2.67
2023-05-09T11:30:43.371Z,2.33
2023-05-09T11:33:49.128Z,2.55
2023-05-09T11:36:50.771Z,2.60
2023-05-09T11:40:00.564Z,2.33
2023-05-09T11:43:02.240Z,1.80
2023-05-09T11:46:04.449Z,1.80
2023-05-09T11:49:07.831Z,1.70
2023-05-09T11:52:10.292Z,1.40
2023-05-09T11:55:22.778Z,1.55
2023-05-09T11:58:24.529Z,1.60
2023-05-09T12:01:26.638Z,1.30
2023-05-09T12:04:30.418Z,1.20
2023-05-09T12:07:31.861Z,1.35
2023-05-09T12:10:38.838Z,1.65
2023-05-09T12:13:51.120Z,1.98
2023-05-09T12:16:52.499Z,1.40
2023-05-09T12:19:53.948Z,1.40
2023-05-09T12:22:55.803Z,1.42
2023-05-09T12:25:57.752Z,1.33
2023-05-09T12:28:59.469Z,1.50
2023-05-09T12:32:01.209Z,1.45
2023-05-09T12:35:03.662Z,1.50
2023-05-09T12:38:05.101Z,1.60
2023-05-09T12:41:22.299Z,1.38
2023-05-09T12:44:31.754Z,2.00
2023-05-09T12:47:33.793Z,1.88
2023-05-09T12:50:36.263Z,1.63
2023-05-09T12:53:39.623Z,1.50
2023-05-09T12:56:41.158Z,1.77
2023-05-09T12:59:44.157Z,1.40
2023-05-09T13:02:45.673Z,1.60
2023-05-09T13:06:13.148Z,1.40
2023-05-09T13:09:14.815Z,1.17
2023-05-09T13:12:16.224Z,1.20
2023-05-09T13:15:20.160Z,1.55
2023-05-09T13:18:23.216Z,1.48
2023-05-09T13:21:24.714Z,1.20
2023-05-09T13:24:26.164Z,1.42
2023-05-09T13:27:27.843Z,1.60
2023-05-09T13:30:30.275Z,1.70
2023-05-09T13:33:32.061Z,1.38
2023-05-09T13:36:33.843Z,1.20
2023-05-09T13:39:35.242Z,1.10
2023-05-09T13:42:36.794Z,1.38
2023-05-09T13:45:38.246Z,1.45
2023-05-09T13:48:39.751Z,1.38
2023-05-09T13:51:41.373Z,1.40
2023-05-09T13:54:43.057Z,1.13
2023-05-09T13:57:44.516Z,1.17
2023-05-09T14:00:46.246Z,1.80
2023-05-09T14:03:49.023Z,1.63
2023-05-09T14:06:50.589Z,1.58
2023-05-09T14:09:58.786Z,1.27
2023-05-09T14:13:13.089Z,1.20
2023-05-09T14:16:14.756Z,2.20
2023-05-09T14:19:16.925Z,1.88
2023-05-09T14:22:18.612Z,1.40
2023-05-09T14:25:20.306Z,1.80
2023-05-09T14:28:21.798Z,1.10
2023-05-09T14:31:23.283Z,0.80
2023-05-09T14:34:24.785Z,0.60
2023-05-09T14:37:26.276Z,0.93
2023-05-09T14:40:31.775Z,0.50
2023-05-09T14:43:33.434Z,0.40
2023-05-09T14:46:36.815Z,0.40
2023-05-09T14:49:41.331Z,0.40
2023-05-09T14:52:44.034Z,0.50
2023-05-09T14:55:45.465Z,0.50
2023-05-09T14:58:46.866Z,1.00
2023-05-09T15:01:48.374Z,0.68
2023-05-09T15:04:49.823Z,0.82
2023-05-09T15:07:51.299Z,0.90
2023-05-09T15:10:52.941Z,0.82
2023-05-09T15:13:54.457Z,0.70
2023-05-09T15:16:59.003Z,0.80
2023-05-09T15:20:00.463Z,0.95
2023-05-09T15:23:02.133Z,0.75
2023-05-09T15:26:03.808Z,0.90
2023-05-09T15:29:05.416Z,1.00
2023-05-09T15:32:06.961Z,1.10
2023-05-09T15:35:08.810Z,1.02
2023-05-09T15:38:12.066Z,0.80
2023-05-09T15:44:14.885Z,0.82
2023-05-09T15:47:16.558Z,1.10
2023-05-09T15:50:18.249Z,1.10
2023-05-09T15:53:19.874Z,0.85
2023-05-09T15:56:21.603Z,1.00
2023-05-09T15:59:23.358Z,1.00
2023-05-09T16:02:24.910Z,1.05
2023-05-09T16:05:26.692Z,0.93
2023-05-09T16:08:28.122Z,0.60
2023-05-09T16:11:29.820Z,0.80
2023-05-09T16:14:31.518Z,1.17
2023-05-09T16:17:33.580Z,0.80
2023-05-09T16:20:35.505Z,0.88
2023-05-09T16:23:37.033Z,0.63
2023-05-09T16:26:38.466Z,1.00
2023-05-09T16:29:40.204Z,0.80
2023-05-09T16:32:42.315Z,0.60
2023-05-09T16:35:44.332Z,0.80
2023-05-09T16:38:45.749Z,1.10
2023-05-09T16:41:47.186Z,0.80
2023-05-09T16:44:48.921Z,0.95
2023-05-09T16:47:51.123Z,0.80
2023-05-09T16:50:53.478Z,1.10
2023-05-09T16:53:55.212Z,0.60
2023-05-09T16:56:56.700Z,0.80
2023-05-09T16:59:58.437Z,0.80
2023-05-09T17:02:59.908Z,0.93
2023-05-09T17:06:01.392Z,0.70
2023-05-09T17:09:03.310Z,0.82
2023-05-09T17:12:05.042Z,0.75
2023-05-09T17:15:07.446Z,0.90
2023-05-09T17:18:08.969Z,1.30
2023-05-09T17:21:10.486Z,1.02
2023-05-09T17:24:12.094Z,0.93
2023-05-09T17:27:13.565Z,1.23
2023-05-09T17:30:15.545Z,1.10
2023-05-09T17:33:17.307Z,1.00
2023-05-09T17:36:18.785Z,1.20
2023-05-09T17:39:20.377Z,1.50
2023-05-09T17:42:21.806Z,1.65
2023-05-09T17:45:24.475Z,1.27
2023-05-09T17:48:26.314Z,1.33
2023-05-09T17:51:27.782Z,1.20
2023-05-09T17:54:29.301Z,1.20
2023-05-09T17:57:30.832Z,2.28
2023-05-09T18:00:32.352Z,1.33
2023-05-09T18:03:33.926Z,0.95
2023-05-09T18:06:36.195Z,1.10
2023-05-09T18:09:37.829Z,1.05
2023-05-09T18:12:39.417Z,1.42
2023-05-09T18:15:41.148Z,2.00
2023-05-09T18:18:44.704Z,1.70
2023-05-09T18:21:46.737Z,2.25
2023-05-09T18:34:37.966Z,1.40
2023-05-09T18:37:39.683Z,2.78
2023-05-09T18:40:41.503Z,1.42
2023-05-09T18:43:45.846Z,1.42
2023-05-09T18:46:47.451Z,1.00
2023-05-09T18:49:49.379Z,1.10
2023-05-09T18:52:51.951Z,1.10
2023-05-09T18:55:53.509Z,1.05
2023-05-09T18:58:55.144Z,1.10
2023-05-09T19:01:56.977Z,0.90
2023-05-09T19:05:00.633Z,1.17
2023-05-09T19:08:03.557Z,1.10
2023-05-09T19:11:05.191Z,1.00
2023-05-09T19:14:06.814Z,0.90
2023-05-09T19:17:08.748Z,1.05
2023-05-09T19:20:11.125Z,1.08
2023-05-09T19:23:12.623Z,1.10
2023-05-09T19:26:15.383Z,1.10
2023-05-09T19:29:16.856Z,0.90
2023-05-09T19:32:18.451Z,0.77
2023-05-09T19:35:20.197Z,0.70
2023-05-09T19:38:21.744Z,1.02
2023-05-09T19:41:23.200Z,0.90
2023-05-09T19:44:25.105Z,0.80
2023-05-09T19:47:26.937Z,0.93
2023-05-09T19:50:28.503Z,0.80
2023-05-09T19:53:30.092Z,0.73
2023-05-09T19:56:31.750Z,0.60
2023-05-09T19:59:33.856Z,0.70
2023-05-09T20:02:35.769Z,0.80
2023-05-09T20:05:37.949Z,1.42
2023-05-09T20:08:39.543Z,0.73
2023-05-09T20:11:40.970Z,0.77
2023-05-09T20:14:42.658Z,0.70
2023-05-09T20:17:44.547Z,0.70
2023-05-09T20:20:46.172Z,0.68
2023-05-09T20:23:47.662Z,0.70
2023-05-09T20:26:49.187Z,0.90
2023-05-09T20:29:50.801Z,0.82
2023-05-09T20:32:52.594Z,0.95
2023-05-09T20:35:54.278Z,0.90
2023-05-09T20:38:57.343Z,0.90
2023-05-09T20:42:02.114Z,0.85
2023-05-09T20:45:04.041Z,0.60
2023-05-09T20:48:06.630Z,0.60
2023-05-09T20:51:08.219Z,1.10
2023-05-09T20:54:09.834Z,0.80
2023-05-09T20:57:11.339Z,0.90
2023-05-09T21:00:13.453Z,0.95
2023-05-09T21:03:15.216Z,0.90
2023-05-09T21:06:16.809Z,0.90
2023-05-09T21:09:18.834Z,0.90
2023-05-09T21:12:20.964Z,0.75
2023-05-09T21:15:22.455Z,1.83
2023-05-09T21:18:24.048Z,0.80
2023-05-09T21:21:25.500Z,0.95
2023-05-09T21:24:26.916Z,0.82
2023-05-09T21:27:30.555Z,0.88
2023-05-09T21:30:32.118Z,1.08
2023-05-09T21:33:33.592Z,1.00
2023-05-09T21:36:37.278Z,0.90
2023-05-09T21:39:39.271Z,0.90
2023-05-09T21:42:41.537Z,0.80
2023-05-09T21:45:43.121Z,0.82
2023-05-09T21:48:44.598Z,1.20
2023-05-09T21:51:46.182Z,1.38
2023-05-09T21:54:47.593Z,1.17
2023-05-09T21:57:49.103Z,0.75
2023-05-09T22:00:50.605Z,0.90
2023-05-09T22:03:52.160Z,0.93
2023-05-09T22:06:53.756Z,1.02
2023-05-09T22:09:55.502Z,1.17
2023-05-09T22:12:56.996Z,1.02
2023-05-09T22:15:58.549Z,1.00
2023-05-09T22:18:59.979Z,1.00
2023-05-09T22:22:01.493Z,1.02
2023-05-09T22:25:06.707Z,0.88
2023-05-09T22:28:08.197Z,0.88
2023-05-09T22:31:10.469Z,0.90
2023-05-09T22:34:11.957Z,0.80
2023-05-09T22:37:13.852Z,1.00
2023-05-09T22:40:15.721Z,1.08
2023-05-09T22:43:17.554Z,1.00
2023-05-09T22:46:18.976Z,0.82
2023-05-09T22:49:20.417Z,0.85
2023-05-09T22:52:21.889Z,0.70
2023-05-09T22:55:23.507Z,0.90
2023-05-09T22:58:24.978Z,1.00
2023-05-09T23:01:27.224Z,0.70
2023-05-09T23:04:28.821Z,0.90
2023-05-09T23:07:30.260Z,0.70
2023-05-09T23:10:31.712Z,0.70
2023-05-09T23:13:35.466Z,0.70
2023-05-09T23:16:36.901Z,0.70
2023-05-09T23:19:38.494Z,0.52
2023-05-09T23:22:41.165Z,0.50
2023-05-09T23:25:44.246Z,0.70
2023-05-09T23:28:45.838Z,0.57
2023-05-09T23:31:47.541Z,0.70
2023-05-09T23:34:49.010Z,0.60
2023-05-09T23:37:50.461Z,0.50
2023-05-09T23:40:53.743Z,0.60
2023-05-09T23:46:59.372Z,0.63
2023-05-09T23:50:01.169Z,0.47
2023-05-09T23:53:04.854Z,0.47
2023-05-09T23:56:07.035Z,0.60
2023-05-09T23:59:08.504Z,0.40
